Time;durP1;ratioP1;P1;durP2;ratioP2;P2;SDS_P1;SDS_P2;PMS_P1;PMS_P2;Temp;Humidity;BMP_temperature;BMP_pressure;BME280_temperature;BME280_humidity;BME280_pressure;Samples;Min_cycle;Max_cycle;Signal;HPM_P1;HPM_P2
2022/04/08 00:00:42;;;;;;;11.65;2.75;;;;;;;;;;4991266;28;20026;-69
2022/04/08 00:03:27;;;;;;;5.32;1.67;;;;;;;;;;5007016;28;20034;-67
2022/04/08 00:06:13;;;;;;;7.20;1.95;;;;;;;;;;4994954;28;20456;-67
2022/04/08 00:08:58;;;;;;;8.30;1.88;;;;;;;;;;5025003;28;20021;-71
2022/04/08 00:11:43;;;;;;;7.55;2.05;;;;;;;;;;5016329;28;20018;-65
2022/04/08 00:14:28;;;;;;;6.00;1.80;;;;;;;;;;5015958;28;20042;-65
2022/04/08 00:17:14;;;;;;;6.72;2.28;;;;;;;;;;4992539;28;20028;-65
2022/04/08 00:19:59;;;;;;;6.97;1.98;;;;;;;;;;4995940;28;20582;-65
2022/04/08 00:22:45;;;;;;;4.93;1.80;;;;;;;;;;4999503;28;20092;-64
2022/04/08 00:25:30;;;;;;;8.55;2.40;;;;;;;;;;4992785;28;20054;-72
2022/04/08 00:28:16;;;;;;;5.70;1.52;;;;;;;;;;4993585;28;20030;-64
2022/04/08 00:31:02;;;;;;;4.07;1.65;;;;;;;;;;5020664;28;20022;-62
2022/04/08 00:33:48;;;;;;;8.52;2.60;;;;;;;;;;5006711;28;20033;-61
2022/04/08 00:36:33;;;;;;;5.63;2.67;;;;;;;;;;5006719;28;20496;-61
2022/04/08 00:39:19;;;;;;;9.60;2.15;;;;;;;;;;5008439;28;20052;-62
2022/04/08 00:42:06;;;;;;;11.18;2.38;;;;;;;;;;4987259;28;20036;-65
2022/04/08 00:44:51;;;;;;;8.00;1.95;;;;;;;;;;4997089;28;20053;-68
2022/04/08 00:47:37;;;;;;;6.40;1.65;;;;;;;;;;4991772;28;20782;-71
2022/04/08 00:50:22;;;;;;;9.25;2.28;;;;;;;;;;4993457;28;20049;-71
2022/04/08 00:53:08;;;;;;;10.75;2.20;;;;;;;;;;5008070;28;20037;-71
2022/04/08 00:55:53;;;;;;;8.93;2.08;;;;;;;;;;5006084;28;20092;-72
2022/04/08 00:58:39;;;;;;;8.30;2.42;;;;;;;;;;5007887;28;20042;-70
2022/04/08 01:01:24;;;;;;;11.27;1.92;;;;;;;;;;4993070;28;20028;-69
2022/04/08 01:04:09;;;;;;;8.80;2.58;;;;;;;;;;4994600;28;20029;-61
2022/04/08 01:06:55;;;;;;;9.18;1.95;;;;;;;;;;4996173;28;20406;-71
2022/04/08 01:09:40;;;;;;;5.75;2.13;;;;;;;;;;4997840;28;20026;-70
2022/04/08 01:12:25;;;;;;;7.45;2.17;;;;;;;;;;5019641;28;20507;-71
2022/04/08 01:15:10;;;;;;;8.00;2.33;;;;;;;;;;5019634;28;20065;-73
2022/04/08 01:17:56;;;;;;;4.95;1.80;;;;;;;;;;4992975;28;20038;-71
2022/04/08 01:20:41;;;;;;;8.93;1.90;;;;;;;;;;5001850;28;20037;-70
2022/04/08 01:23:27;;;;;;;5.68;2.00;;;;;;;;;;4979687;28;20026;-70
2022/04/08 01:26:12;;;;;;;9.63;1.90;;;;;;;;;;4994061;28;20057;-71
2022/04/08 01:28:57;;;;;;;6.60;1.63;;;;;;;;;;5022335;28;20630;-72
2022/04/08 01:31:45;;;;;;;7.68;1.90;;;;;;;;;;5013151;28;20022;-72
2022/04/08 01:34:30;;;;;;;4.80;1.55;;;;;;;;;;4997260;28;20045;-74
2022/04/08 01:37:21;;;;;;;7.85;2.53;;;;;;;;;;4995318;28;20013;-71
2022/04/08 01:40:07;;;;;;;6.45;1.65;;;;;;;;;;5002911;28;20025;-66
2022/04/08 01:42:52;;;;;;;5.88;1.48;;;;;;;;;;4991433;28;20357;-67
2022/04/08 01:45:38;;;;;;;7.30;1.80;;;;;;;;;;4996961;28;20509;-66
2022/04/08 01:48:23;;;;;;;7.32;1.88;;;;;;;;;;5021163;28;20470;-66
2022/04/08 01:51:08;;;;;;;7.07;2.15;;;;;;;;;;5011428;28;20106;-69
2022/04/08 01:53:53;;;;;;;8.73;2.60;;;;;;;;;;4989806;28;20108;-69
2022/04/08 01:56:39;;;;;;;6.57;1.65;;;;;;;;;;5024127;28;20036;-68
2022/04/08 01:59:24;;;;;;;5.03;1.65;;;;;;;;;;5023288;28;20528;-69
2022/04/08 02:02:09;;;;;;;9.35;1.73;;;;;;;;;;5024656;28;20121;-61
2022/04/08 02:04:54;;;;;;;7.13;1.70;;;;;;;;;;5033482;28;20024;-63
2022/04/08 02:07:40;;;;;;;5.38;1.42;;;;;;;;;;4997145;28;20452;-62
2022/04/08 02:10:25;;;;;;;5.90;1.50;;;;;;;;;;5023810;28;20457;-62
2022/04/08 02:13:11;;;;;;;7.88;2.00;;;;;;;;;;5023382;28;20488;-62
2022/04/08 02:15:56;;;;;;;6.82;1.63;;;;;;;;;;5023017;28;20033;-69
2022/04/08 02:18:42;;;;;;;8.25;2.20;;;;;;;;;;5000148;28;20370;-72
2022/04/08 02:21:27;;;;;;;5.90;1.55;;;;;;;;;;4996983;28;20022;-65
2022/04/08 02:24:13;;;;;;;3.70;1.42;;;;;;;;;;4995480;28;20029;-64
2022/04/08 02:26:58;;;;;;;7.65;2.08;;;;;;;;;;4993383;28;20050;-62
2022/04/08 02:29:44;;;;;;;6.78;1.80;;;;;;;;;;5023065;28;20050;-63
2022/04/08 02:32:29;;;;;;;8.68;2.10;;;;;;;;;;4998260;28;20036;-66
2022/04/08 02:35:14;;;;;;;4.03;1.42;;;;;;;;;;4992552;28;20526;-70
2022/04/08 02:38:00;;;;;;;9.23;2.17;;;;;;;;;;4995713;28;20060;-63
2022/04/08 02:40:45;;;;;;;6.88;1.83;;;;;;;;;;4995067;28;20032;-64
2022/04/08 02:43:31;;;;;;;5.53;1.90;;;;;;;;;;4996119;28;20038;-65
2022/04/08 02:46:16;;;;;;;5.97;1.48;;;;;;;;;;4995482;28;20034;-64
2022/04/08 02:49:01;;;;;;;6.82;1.70;;;;;;;;;;4995782;28;20036;-64
2022/04/08 02:51:46;;;;;;;3.90;1.35;;;;;;;;;;4995278;28;20032;-63
2022/04/08 02:54:32;;;;;;;10.18;2.00;;;;;;;;;;4982991;28;20037;-71
2022/04/08 02:57:17;;;;;;;7.65;1.70;;;;;;;;;;4991639;28;20034;-64
2022/04/08 03:00:02;;;;;;;8.38;1.77;;;;;;;;;;4988880;28;20029;-63
2022/04/08 03:02:48;;;;;;;6.05;1.67;;;;;;;;;;5019927;28;20017;-64
2022/04/08 03:05:33;;;;;;;6.25;1.42;;;;;;;;;;4997890;28;20112;-64
2022/04/08 03:08:19;;;;;;;4.60;1.52;;;;;;;;;;4996158;28;20033;-65
2022/04/08 03:11:04;;;;;;;6.45;1.65;;;;;;;;;;5022052;28;20030;-62
2022/04/08 03:13:49;;;;;;;11.40;2.70;;;;;;;;;;4996300;28;20113;-72
2022/04/08 03:16:35;;;;;;;5.82;1.80;;;;;;;;;;4999820;28;20030;-70
2022/04/08 03:19:20;;;;;;;6.05;1.60;;;;;;;;;;4991839;28;20499;-70
2022/04/08 03:22:06;;;;;;;9.13;2.00;;;;;;;;;;4988138;28;20500;-71
2022/04/08 03:24:51;;;;;;;8.77;2.05;;;;;;;;;;4995869;28;20116;-71
2022/04/08 03:27:36;;;;;;;4.15;1.90;;;;;;;;;;5008849;28;20041;-75
2022/04/08 03:30:22;;;;;;;8.82;1.95;;;;;;;;;;5022547;28;20105;-66
2022/04/08 03:33:07;;;;;;;7.40;2.10;;;;;;;;;;4995781;28;20025;-63
2022/04/08 03:35:52;;;;;;;7.38;2.28;;;;;;;;;;4981245;28;20065;-62
2022/04/08 03:38:38;;;;;;;6.75;2.08;;;;;;;;;;5021697;28;20034;-62
2022/04/08 03:41:23;;;;;;;10.55;2.08;;;;;;;;;;4981081;28;20029;-62
2022/04/08 03:44:08;;;;;;;8.15;2.10;;;;;;;;;;5008623;28;20525;-64
2022/04/08 03:46:53;;;;;;;5.68;1.73;;;;;;;;;;4993356;28;20026;-67
2022/04/08 03:49:38;;;;;;;8.75;1.70;;;;;;;;;;4994193;28;20037;-70
2022/04/08 03:52:24;;;;;;;7.50;1.92;;;;;;;;;;4992879;28;20048;-71
2022/04/08 03:55:10;;;;;;;11.45;1.98;;;;;;;;;;5003871;28;20116;-71
2022/04/08 03:57:55;;;;;;;7.55;1.88;;;;;;;;;;4989921;28;20548;-70
2022/04/08 04:00:41;;;;;;;3.65;1.73;;;;;;;;;;4995173;28;20022;-71
2022/04/08 04:03:26;;;;;;;7.80;2.10;;;;;;;;;;4980159;28;20025;-69
2022/04/08 04:06:11;;;;;;;9.82;2.17;;;;;;;;;;4994907;28;20029;-70
2022/04/08 04:08:57;;;;;;;6.45;1.90;;;;;;;;;;5030511;28;20044;-74
2022/04/08 04:11:42;;;;;;;10.07;2.45;;;;;;;;;;5007878;28;20029;-65
2022/04/08 04:14:27;;;;;;;3.63;1.40;;;;;;;;;;5020433;28;20480;-64
2022/04/08 04:17:13;;;;;;;6.63;1.65;;;;;;;;;;4994256;28;20053;-63
2022/04/08 04:19:59;;;;;;;8.45;2.42;;;;;;;;;;5002408;28;20166;-63
2022/04/08 04:22:44;;;;;;;6.97;1.73;;;;;;;;;;5008773;28;20083;-63
2022/04/08 04:25:30;;;;;;;11.23;2.50;;;;;;;;;;5006620;28;20172;-73
2022/04/08 04:28:15;;;;;;;9.25;1.80;;;;;;;;;;4991468;28;20072;-70
2022/04/08 04:31:03;;;;;;;6.30;2.00;;;;;;;;;;4985257;28;20025;-71
2022/04/08 04:33:48;;;;;;;6.70;1.75;;;;;;;;;;4993354;28;20108;-69
2022/04/08 04:36:34;;;;;;;5.25;1.90;;;;;;;;;;4980287;28;20042;-71
2022/04/08 04:39:19;;;;;;;8.23;1.58;;;;;;;;;;4990760;28;20022;-70
2022/04/08 04:42:07;;;;;;;5.50;1.67;;;;;;;;;;5011203;28;20050;-71
2022/04/08 04:44:52;;;;;;;4.80;1.83;;;;;;;;;;4992999;28;20550;-69
2022/04/08 04:47:38;;;;;;;8.80;2.03;;;;;;;;;;4993404;28;20588;-70
2022/04/08 04:50:23;;;;;;;6.45;1.95;;;;;;;;;;4997070;28;20030;-69
2022/04/08 04:53:08;;;;;;;7.00;1.90;;;;;;;;;;4996184;28;20117;-70
2022/04/08 04:55:57;;;;;;;8.20;1.95;;;;;;;;;;4985834;28;20116;-70
2022/04/08 04:58:42;;;;;;;6.63;2.20;;;;;;;;;;5008065;28;20021;-69
2022/04/08 05:01:27;;;;;;;7.15;1.90;;;;;;;;;;4991730;28;20032;-70
2022/04/08 05:04:12;;;;;;;8.38;1.67;;;;;;;;;;4992678;28;20421;-69
2022/04/08 05:06:57;;;;;;;6.28;1.70;;;;;;;;;;4994837;28;20033;-69
2022/04/08 05:09:43;;;;;;;4.50;1.67;;;;;;;;;;5025003;28;20026;-67
2022/04/08 05:12:28;;;;;;;7.30;1.85;;;;;;;;;;5010450;28;20034;-67
2022/04/08 05:15:13;;;;;;;6.80;2.00;;;;;;;;;;5011622;28;20052;-70
2022/04/08 05:17:59;;;;;;;10.27;2.40;;;;;;;;;;5022694;28;20037;-69
2022/04/08 05:20:45;;;;;;;7.45;1.83;;;;;;;;;;5009941;28;20445;-72
2022/04/08 05:23:31;;;;;;;9.52;2.75;;;;;;;;;;5003807;28;20368;-65
2022/04/08 05:26:16;;;;;;;6.10;2.38;;;;;;;;;;4996321;28;20042;-66
2022/04/08 05:29:02;;;;;;;4.50;1.88;;;;;;;;;;4997561;28;20026;-66
2022/04/08 05:31:47;;;;;;;6.63;1.45;;;;;;;;;;5007035;28;20026;-68
2022/04/08 05:34:32;;;;;;;7.13;1.77;;;;;;;;;;4996693;28;20044;-66
2022/04/08 05:37:18;;;;;;;12.38;3.03;;;;;;;;;;4997931;28;20513;-67
2022/04/08 05:40:03;;;;;;;5.40;1.88;;;;;;;;;;5014285;28;20119;-62
2022/04/08 05:42:49;;;;;;;5.95;1.95;;;;;;;;;;5011019;28;20082;-71
2022/04/08 05:45:34;;;;;;;5.15;1.77;;;;;;;;;;4994201;28;20405;-71
2022/04/08 05:48:20;;;;;;;5.68;2.58;;;;;;;;;;5008864;28;20033;-72
2022/04/08 05:51:05;;;;;;;8.82;2.58;;;;;;;;;;4998228;28;20019;-72
2022/04/08 05:53:50;;;;;;;11.68;2.80;;;;;;;;;;4985409;28;20037;-70
2022/04/08 05:56:35;;;;;;;8.93;2.03;;;;;;;;;;4994050;28;20038;-73
2022/04/08 05:59:21;;;;;;;9.13;2.08;;;;;;;;;;5005503;28;20018;-72
2022/04/08 06:02:06;;;;;;;14.23;3.05;;;;;;;;;;5005707;28;20147;-75
2022/04/08 06:04:51;;;;;;;6.78;1.85;;;;;;;;;;4988022;28;20462;-72
2022/04/08 06:07:47;;;;;;;6.78;2.20;;;;;;;;;;4982756;28;20034;-73
2022/04/08 06:10:32;;;;;;;8.45;2.10;;;;;;;;;;5002908;28;20036;-73
2022/04/08 06:13:24;;;;;;;11.15;2.35;;;;;;;;;;5007843;28;20022;-71
2022/04/08 06:16:09;;;;;;;7.90;2.53;;;;;;;;;;5009251;28;20090;-72
2022/04/08 06:18:55;;;;;;;8.60;1.60;;;;;;;;;;5024367;28;20026;-67
2022/04/08 06:21:41;;;;;;;7.75;1.88;;;;;;;;;;4978717;28;20022;-66
2022/04/08 06:24:26;;;;;;;6.93;2.17;;;;;;;;;;5008987;28;20607;-62
2022/04/08 06:27:11;;;;;;;6.25;1.70;;;;;;;;;;5009574;28;20073;-64
2022/04/08 06:29:56;;;;;;;9.20;2.30;;;;;;;;;;4989823;28;20033;-66
2022/04/08 06:32:43;;;;;;;7.15;2.03;;;;;;;;;;5023393;28;20048;-64
2022/04/08 06:35:28;;;;;;;7.15;2.08;;;;;;;;;;4995641;28;20529;-68
2022/04/08 06:38:15;;;;;;;8.18;1.95;;;;;;;;;;5009820;28;20030;-72
2022/04/08 06:41:00;;;;;;;9.48;2.20;;;;;;;;;;5010512;28;20065;-72
2022/04/08 06:43:45;;;;;;;9.65;2.28;;;;;;;;;;5008987;28;20018;-73
2022/04/08 06:46:30;;;;;;;5.35;1.63;;;;;;;;;;5022351;28;20026;-72
2022/04/08 06:49:19;;;;;;;5.85;1.85;;;;;;;;;;4993346;28;20030;-75
2022/04/08 06:52:04;;;;;;;6.72;2.20;;;;;;;;;;4995259;28;20033;-62
2022/04/08 06:54:49;;;;;;;3.88;1.55;;;;;;;;;;4978754;28;20041;-62
2022/04/08 06:57:35;;;;;;;6.25;1.90;;;;;;;;;;5006028;28;20108;-62
2022/04/08 07:00:21;;;;;;;5.70;1.95;;;;;;;;;;4981639;28;20026;-65
2022/04/08 07:03:06;;;;;;;4.43;1.58;;;;;;;;;;4996028;28;20024;-63
2022/04/08 07:05:51;;;;;;;10.38;1.98;;;;;;;;;;5020778;28;20029;-63
2022/04/08 07:08:36;;;;;;;6.28;2.03;;;;;;;;;;5009366;28;20406;-62
2022/04/08 07:11:22;;;;;;;5.78;1.77;;;;;;;;;;5019213;28;20451;-68
2022/04/08 07:14:07;;;;;;;7.00;1.58;;;;;;;;;;4990689;28;20040;-66
2022/04/08 07:16:52;;;;;;;4.78;1.83;;;;;;;;;;4994495;28;20064;-67
2022/04/08 07:19:37;;;;;;;5.25;1.80;;;;;;;;;;4995115;28;20025;-67
2022/04/08 07:22:23;;;;;;;9.15;1.77;;;;;;;;;;5027421;28;20049;-68
2022/04/08 07:25:09;;;;;;;9.85;1.90;;;;;;;;;;5004502;28;20373;-68
2022/04/08 07:27:56;;;;;;;4.88;1.30;;;;;;;;;;5003740;28;20076;-65
2022/04/08 07:30:41;;;;;;;4.72;1.73;;;;;;;;;;5011237;28;20055;-74
2022/04/08 07:33:26;;;;;;;5.53;1.90;;;;;;;;;;4994962;28;20030;-63
2022/04/08 07:36:12;;;;;;;4.60;2.03;;;;;;;;;;5004788;28;20038;-62
2022/04/08 07:38:57;;;;;;;5.47;1.27;;;;;;;;;;5016737;28;20060;-64
2022/04/08 07:41:42;;;;;;;6.63;1.80;;;;;;;;;;5024585;28;20117;-64
2022/04/08 07:44:28;;;;;;;10.65;1.67;;;;;;;;;;5004706;28;20026;-62
2022/04/08 07:47:14;;;;;;;7.78;1.80;;;;;;;;;;5007350;28;20117;-63
2022/04/08 07:50:04;;;;;;;3.85;1.63;;;;;;;;;;4994908;28;20124;-64
2022/04/08 07:52:49;;;;;;;7.90;1.90;;;;;;;;;;4980743;28;20029;-68
2022/04/08 07:55:35;;;;;;;4.38;1.60;;;;;;;;;;4976903;28;20117;-68
2022/04/08 07:58:20;;;;;;;2.95;1.33;;;;;;;;;;4993228;28;20022;-67
2022/04/08 08:01:05;;;;;;;4.38;1.67;;;;;;;;;;5022122;28;20030;-67
2022/04/08 08:03:50;;;;;;;3.92;1.20;;;;;;;;;;5008470;28;20061;-66
2022/04/08 08:06:36;;;;;;;1.98;1.20;;;;;;;;;;5008178;28;20033;-73
2022/04/08 08:09:21;;;;;;;4.70;1.45;;;;;;;;;;5007496;28;20018;-69
2022/04/08 08:12:06;;;;;;;4.35;1.67;;;;;;;;;;5020261;28;20053;-68
2022/04/08 08:14:52;;;;;;;6.45;1.60;;;;;;;;;;4981394;28;20030;-67
2022/04/08 08:17:39;;;;;;;2.97;1.33;;;;;;;;;;5007137;28;20026;-66
2022/04/08 08:20:24;;;;;;;2.47;1.35;;;;;;;;;;4975263;28;20045;-66
2022/04/08 08:23:10;;;;;;;2.95;1.17;;;;;;;;;;4977407;28;20076;-66
2022/04/08 08:25:55;;;;;;;7.32;1.40;;;;;;;;;;4993534;28;20412;-71
2022/04/08 08:28:40;;;;;;;4.45;1.20;;;;;;;;;;4974820;28;20065;-72
2022/04/08 08:31:25;;;;;;;4.32;1.55;;;;;;;;;;5007777;28;20045;-72
2022/04/08 08:34:11;;;;;;;4.45;1.60;;;;;;;;;;5020405;28;20029;-72
2022/04/08 08:36:59;;;;;;;7.90;1.65;;;;;;;;;;5008198;28;20103;-74
2022/04/08 08:39:45;;;;;;;3.28;1.10;;;;;;;;;;5001644;28;20026;-72
2022/04/08 08:42:31;;;;;;;2.55;1.30;;;;;;;;;;4995688;28;20026;-71
2022/04/08 08:45:17;;;;;;;2.13;1.00;;;;;;;;;;5022577;28;20041;-67
2022/04/08 08:48:04;;;;;;;2.47;1.10;;;;;;;;;;5012940;28;20037;-72
2022/04/08 08:50:52;;;;;;;2.10;1.23;;;;;;;;;;5007176;28;20033;-73
2022/04/08 08:53:38;;;;;;;3.90;1.67;;;;;;;;;;4997141;28;20022;-72
2022/04/08 08:56:24;;;;;;;1.65;1.15;;;;;;;;;;5024554;28;20061;-71
2022/04/08 08:59:10;;;;;;;4.75;1.40;;;;;;;;;;5027936;28;20033;-73
2022/04/08 09:02:03;;;;;;;3.08;1.80;;;;;;;;;;5011654;28;20044;-72
2022/04/08 09:04:51;;;;;;;2.15;0.90;;;;;;;;;;5024021;28;20021;-74
2022/04/08 09:07:36;;;;;;;3.95;1.20;;;;;;;;;;5011925;28;20041;-74
2022/04/08 09:10:26;;;;;;;3.47;1.55;;;;;;;;;;5009606;28;20409;-74
2022/04/08 09:13:11;;;;;;;3.80;1.20;;;;;;;;;;5011433;28;20381;-75
2022/04/08 09:15:56;;;;;;;3.00;1.13;;;;;;;;;;5023964;28;20532;-74
2022/04/08 09:18:48;;;;;;;3.85;1.30;;;;;;;;;;5024622;28;20040;-74
2022/04/08 09:21:33;;;;;;;3.47;1.20;;;;;;;;;;4997692;28;20045;-62
2022/04/08 09:24:27;;;;;;;3.53;1.00;;;;;;;;;;5025803;28;20030;-61
2022/04/08 09:27:12;;;;;;;4.57;1.38;;;;;;;;;;4976633;28;20046;-62
2022/04/08 09:29:57;;;;;;;3.33;1.30;;;;;;;;;;5018158;28;20065;-62
2022/04/08 09:32:42;;;;;;;2.70;1.00;;;;;;;;;;5011306;28;20382;-62
2022/04/08 09:35:29;;;;;;;3.50;1.05;;;;;;;;;;4970487;28;20038;-62
2022/04/08 09:38:18;;;;;;;2.53;1.10;;;;;;;;;;4997222;28;20027;-65
2022/04/08 09:41:07;;;;;;;2.20;1.00;;;;;;;;;;4971315;28;20030;-72
2022/04/08 09:43:52;;;;;;;1.88;1.20;;;;;;;;;;5004853;28;20035;-68
2022/04/08 09:46:37;;;;;;;2.72;0.90;;;;;;;;;;5002621;28;20667;-65
2022/04/08 09:49:23;;;;;;;1.70;0.90;;;;;;;;;;4990742;28;20022;-65
2022/04/08 09:52:09;;;;;;;3.35;1.08;;;;;;;;;;5000558;28;20397;-63
2022/04/08 09:54:57;;;;;;;2.83;0.93;;;;;;;;;;5004035;28;20038;-65
2022/04/08 09:57:43;;;;;;;3.20;1.10;;;;;;;;;;4991133;28;20381;-66
2022/04/08 10:00:29;;;;;;;2.08;1.20;;;;;;;;;;4991018;28;20355;-74
2022/04/08 10:03:14;;;;;;;1.52;0.80;;;;;;;;;;5002733;28;20330;-74
2022/04/08 10:06:00;;;;;;;2.53;1.10;;;;;;;;;;5012957;28;20144;-74
2022/04/08 10:08:46;;;;;;;4.95;1.00;;;;;;;;;;4987372;28;20561;-77
2022/04/08 10:11:47;;;;;;;0.93;0.85;;;;;;;;;;5003734;28;20359;-74
2022/04/08 10:14:41;;;;;;;1.38;0.90;;;;;;;;;;5015193;28;20100;-70
2022/04/08 10:17:27;;;;;;;2.08;0.77;;;;;;;;;;4978145;28;20097;-73
2022/04/08 10:20:19;;;;;;;2.28;1.10;;;;;;;;;;4988366;28;20077;-65
2022/04/08 10:23:04;;;;;;;1.95;1.00;;;;;;;;;;4990119;28;20058;-63
2022/04/08 10:25:57;;;;;;;1.35;0.80;;;;;;;;;;5001990;28;20054;-66
2022/04/08 10:28:42;;;;;;;2.67;0.95;;;;;;;;;;5001706;28;20093;-63
2022/04/08 10:31:27;;;;;;;1.70;1.00;;;;;;;;;;4990048;28;20605;-64
2022/04/08 10:34:15;;;;;;;5.88;1.70;;;;;;;;;;4988354;28;20023;-74
2022/04/08 10:37:01;;;;;;;1.23;0.90;;;;;;;;;;5005071;28;20027;-63
2022/04/08 10:40:05;;;;;;;1.63;1.00;;;;;;;;;;5000458;28;20429;-68
2022/04/08 10:43:01;;;;;;;1.20;0.73;;;;;;;;;;5003735;28;20050;-66
2022/04/08 10:45:56;;;;;;;1.80;0.70;;;;;;;;;;4989663;28;20050;-69
2022/04/08 10:48:41;;;;;;;2.92;0.90;;;;;;;;;;5001272;28;20023;-65
2022/04/08 10:51:30;;;;;;;0.88;0.70;;;;;;;;;;4990189;28;20026;-61
2022/04/08 10:54:15;;;;;;;2.47;0.98;;;;;;;;;;4988147;28;20501;-73
2022/04/08 10:57:00;;;;;;;3.95;1.10;;;;;;;;;;5017013;28;20030;-65
2022/04/08 10:59:52;;;;;;;2.92;1.00;;;;;;;;;;5016080;28;20027;-66
2022/04/08 11:02:38;;;;;;;1.60;0.90;;;;;;;;;;4978229;28;20389;-68
2022/04/08 11:05:23;;;;;;;2.63;1.40;;;;;;;;;;5001524;28;20038;-66
2022/04/08 11:08:09;;;;;;;1.70;1.20;;;;;;;;;;5003438;28;20041;-66
2022/04/08 11:10:58;;;;;;;2.45;1.13;;;;;;;;;;5013923;28;20109;-70
2022/04/08 11:13:43;;;;;;;1.90;1.20;;;;;;;;;;5015967;28;20030;-60
2022/04/08 11:16:30;;;;;;;1.73;1.00;;;;;;;;;;5000707;28;20081;-60
2022/04/08 11:19:16;;;;;;;3.72;1.10;;;;;;;;;;5002641;28;20106;-63
2022/04/08 11:22:10;;;;;;;2.38;1.17;;;;;;;;;;5001458;28;20030;-62
2022/04/08 11:24:56;;;;;;;3.55;1.30;;;;;;;;;;5019718;28;20410;-62
2022/04/08 11:27:41;;;;;;;1.42;1.05;;;;;;;;;;5019561;28;20421;-65
2022/04/08 11:30:27;;;;;;;2.33;0.90;;;;;;;;;;5024592;28;20030;-69
2022/04/08 11:33:16;;;;;;;2.13;1.25;;;;;;;;;;5009004;28;20057;-64
2022/04/08 11:36:03;;;;;;;2.45;1.17;;;;;;;;;;5014066;28;20037;-64
2022/04/08 11:38:48;;;;;;;2.70;1.30;;;;;;;;;;4995579;28;20057;-66
2022/04/08 11:41:34;;;;;;;5.68;2.25;;;;;;;;;;4994015;28;20033;-64
2022/04/08 11:44:20;;;;;;;3.95;1.50;;;;;;;;;;5006253;28;20466;-64
2022/04/08 11:47:06;;;;;;;2.85;1.58;;;;;;;;;;5018350;28;20385;-62
2022/04/08 11:50:00;;;;;;;2.15;1.30;;;;;;;;;;4994532;28;20095;-75
2022/04/08 11:52:51;;;;;;;4.72;2.42;;;;;;;;;;4973893;28;20045;-68
2022/04/08 11:55:36;;;;;;;7.03;3.50;;;;;;;;;;4984494;28;20049;-70
2022/04/08 11:58:22;;;;;;;8.10;3.67;;;;;;;;;;4990112;28;20440;-68
2022/04/08 12:01:08;;;;;;;6.75;2.83;;;;;;;;;;4993912;28;20438;-69
2022/04/08 12:03:53;;;;;;;5.97;2.80;;;;;;;;;;4994877;28;20069;-68
2022/04/08 12:06:39;;;;;;;5.22;2.22;;;;;;;;;;4996209;28;20061;-64
2022/04/08 12:09:24;;;;;;;2.38;1.63;;;;;;;;;;4995282;28;20072;-67
2022/04/08 12:12:09;;;;;;;2.55;1.55;;;;;;;;;;4993919;28;20029;-68
2022/04/08 12:14:55;;;;;;;1.83;1.42;;;;;;;;;;4995424;28;20124;-65
2022/04/08 12:17:41;;;;;;;1.20;1.10;;;;;;;;;;4990785;28;20022;-64
2022/04/08 12:20:26;;;;;;;4.50;1.63;;;;;;;;;;5008876;28;20424;-64
2022/04/08 12:23:13;;;;;;;1.80;1.10;;;;;;;;;;4987888;28;20065;-65
2022/04/08 12:25:59;;;;;;;3.20;1.45;;;;;;;;;;5008276;28;20473;-65
2022/04/08 12:28:45;;;;;;;4.22;1.55;;;;;;;;;;4995201;28;20589;-66
2022/04/08 12:31:30;;;;;;;3.75;1.65;;;;;;;;;;4981153;28;20038;-67
2022/04/08 12:34:16;;;;;;;3.15;1.58;;;;;;;;;;5020753;28;20464;-68
2022/04/08 12:37:01;;;;;;;3.08;1.45;;;;;;;;;;4979570;28;20124;-70
2022/04/08 12:39:46;;;;;;;3.78;1.35;;;;;;;;;;5020662;28;20424;-69
2022/04/08 12:42:35;;;;;;;1.63;1.40;;;;;;;;;;5022210;28;20061;-67
2022/04/08 12:45:20;;;;;;;3.03;1.60;;;;;;;;;;5014417;28;20062;-69
2022/04/08 12:48:06;;;;;;;1.30;1.20;;;;;;;;;;5020671;28;20041;-69
2022/04/08 12:50:51;;;;;;;4.70;1.67;;;;;;;;;;4994397;28;20103;-69
2022/04/08 12:53:36;;;;;;;3.60;1.67;;;;;;;;;;5020632;28;20385;-69
2022/04/08 12:56:24;;;;;;;3.80;2.00;;;;;;;;;;4994669;28;20042;-68
2022/04/08 12:59:09;;;;;;;4.18;1.70;;;;;;;;;;4979480;28;20657;-69
2022/04/08 13:01:55;;;;;;;5.40;1.67;;;;;;;;;;4994481;28;20079;-67
2022/04/08 13:04:40;;;;;;;2.20;1.45;;;;;;;;;;5020772;28;20029;-65
2022/04/08 13:07:25;;;;;;;2.95;1.40;;;;;;;;;;5013080;28;20017;-64
2022/04/08 13:10:10;;;;;;;1.33;1.20;;;;;;;;;;4994001;28;20431;-65
2022/04/08 13:12:56;;;;;;;3.15;1.20;;;;;;;;;;4991159;28;20029;-68
2022/04/08 13:15:41;;;;;;;1.98;1.20;;;;;;;;;;4993341;28;20511;-64
2022/04/08 13:18:26;;;;;;;1.50;1.25;;;;;;;;;;5032296;28;20548;-65
2022/04/08 13:21:12;;;;;;;2.70;1.40;;;;;;;;;;4979474;28;20042;-63
2022/04/08 13:23:57;;;;;;;2.33;1.58;;;;;;;;;;4988525;28;20482;-64
2022/04/08 13:26:43;;;;;;;2.97;1.65;;;;;;;;;;4979860;28;20346;-63
2022/04/08 13:29:28;;;;;;;2.38;1.30;;;;;;;;;;5009789;28;20409;-64
2022/04/08 13:32:18;;;;;;;2.08;1.58;;;;;;;;;;4997650;28;20503;-64
2022/04/08 13:35:03;;;;;;;;;;;;;;;;;;4997190;28;20065;-63
2022/04/08 13:37:48;;;;;;;3.78;1.95;;;;;;;;;;5017249;28;19957;-63
2022/04/08 13:40:33;;;;;;;3.40;1.63;;;;;;;;;;4982904;28;20021;-63
2022/04/08 13:43:19;;;;;;;2.55;1.45;;;;;;;;;;5032845;28;20125;-66
2022/04/08 13:46:04;;;;;;;6.85;2.75;;;;;;;;;;4996781;28;20025;-65
2022/04/08 13:48:50;;;;;;;4.43;2.25;;;;;;;;;;4997111;28;20038;-65
2022/04/08 13:51:38;;;;;;;5.53;2.45;;;;;;;;;;4982427;28;20370;-65
2022/04/08 13:54:24;;;;;;;7.90;2.65;;;;;;;;;;5002875;28;20034;-69
2022/04/08 13:57:09;;;;;;;4.90;2.28;;;;;;;;;;4994134;28;20045;-69
2022/04/08 13:59:54;;;;;;;2.17;1.80;;;;;;;;;;5010739;28;20408;-68
2022/04/08 14:02:40;;;;;;;4.57;1.90;;;;;;;;;;4992850;28;20113;-67
2022/04/08 14:05:25;;;;;;;3.53;2.10;;;;;;;;;;5010431;28;20022;-68
2022/04/08 14:08:12;;;;;;;2.88;2.22;;;;;;;;;;5009441;28;20378;-68
2022/04/08 14:11:00;;;;;;;3.15;2.17;;;;;;;;;;5010486;28;20065;-69
2022/04/08 14:13:45;;;;;;;3.63;2.45;;;;;;;;;;5016160;28;20473;-67
2022/04/08 14:16:30;;;;;;;3.65;2.45;;;;;;;;;;4990249;28;20037;-61
2022/04/08 14:19:15;;;;;;;5.70;2.70;;;;;;;;;;4996640;28;20357;-73
2022/04/08 14:22:01;;;;;;;5.05;2.63;;;;;;;;;;4997073;28;20068;-73
2022/04/08 14:24:46;;;;;;;5.13;2.95;;;;;;;;;;5002467;28;20120;-71
2022/04/08 14:27:31;;;;;;;6.15;3.22;;;;;;;;;;4993374;28;20555;-73
2022/04/08 14:30:17;;;;;;;3.45;2.40;;;;;;;;;;4996946;28;20045;-74
2022/04/08 14:33:02;;;;;;;5.05;2.95;;;;;;;;;;4995543;28;20048;-68
2022/04/08 14:35:47;;;;;;;4.97;2.70;;;;;;;;;;4996153;28;20049;-74
2022/04/08 14:38:33;;;;;;;5.43;2.80;;;;;;;;;;5009256;28;20600;-73
2022/04/08 14:41:18;;;;;;;6.13;3.03;;;;;;;;;;4981989;28;20540;-74
2022/04/08 14:44:05;;;;;;;5.10;3.17;;;;;;;;;;4994941;28;20026;-74
2022/04/08 14:46:50;;;;;;;6.45;2.83;;;;;;;;;;5024458;28;20030;-73
2022/04/08 14:49:35;;;;;;;4.22;2.72;;;;;;;;;;5001378;28;20489;-74
2022/04/08 14:52:21;;;;;;;5.20;2.30;;;;;;;;;;5023622;28;20036;-63
2022/04/08 14:55:06;;;;;;;5.10;2.30;;;;;;;;;;5011908;28;20029;-73
2022/04/08 14:57:51;;;;;;;3.50;2.10;;;;;;;;;;4993747;28;20030;-73
2022/04/08 15:00:37;;;;;;;3.13;1.67;;;;;;;;;;5000218;28;20026;-75
2022/04/08 15:03:22;;;;;;;2.20;1.23;;;;;;;;;;4994911;28;20057;-73
2022/04/08 15:06:08;;;;;;;2.60;0.93;;;;;;;;;;4996079;28;20087;-73
2022/04/08 15:08:54;;;;;;;4.07;1.27;;;;;;;;;;5008129;28;20441;-72
2022/04/08 15:11:39;;;;;;;1.60;1.20;;;;;;;;;;5022703;28;20033;-74
2022/04/08 15:14:24;;;;;;;1.80;1.27;;;;;;;;;;5017759;28;20089;-74
2022/04/08 15:17:09;;;;;;;2.30;1.40;;;;;;;;;;5012441;28;20075;-72
2022/04/08 15:19:55;;;;;;;1.45;0.95;;;;;;;;;;4985316;28;20469;-71
2022/04/08 15:22:40;;;;;;;4.90;1.20;;;;;;;;;;4982119;28;20029;-72
2022/04/08 15:25:26;;;;;;;1.00;0.90;;;;;;;;;;5019204;28;20041;-72
2022/04/08 15:28:11;;;;;;;0.70;0.70;;;;;;;;;;4988218;28;20022;-70
2022/04/08 15:30:56;;;;;;;2.10;1.35;;;;;;;;;;4994599;28;20477;-74
2022/04/08 15:33:43;;;;;;;1.60;1.10;;;;;;;;;;4995409;28;20040;-72
2022/04/08 15:36:28;;;;;;;1.90;1.40;;;;;;;;;;4980736;28;20041;-71
2022/04/08 15:39:14;;;;;;;2.13;1.20;;;;;;;;;;5011657;28;20493;-72
2022/04/08 15:41:59;;;;;;;1.50;1.10;;;;;;;;;;4981327;28;20038;-74
2022/04/08 15:44:45;;;;;;;2.83;1.10;;;;;;;;;;5008018;28;20080;-71
2022/04/08 15:47:33;;;;;;;3.33;1.25;;;;;;;;;;4993918;28;20025;-62
2022/04/08 15:50:18;;;;;;;1.38;1.00;;;;;;;;;;4991768;28;20026;-62
2022/04/08 15:53:03;;;;;;;1.60;0.93;;;;;;;;;;4992879;28;20373;-61
2022/04/08 15:55:49;;;;;;;2.30;1.20;;;;;;;;;;5008143;28;20500;-62
2022/04/08 15:58:34;;;;;;;3.58;1.30;;;;;;;;;;4989639;28;21230;-62
2022/04/08 16:01:19;;;;;;;1.38;1.20;;;;;;;;;;4979980;28;20431;-62
2022/04/08 16:04:05;;;;;;;2.88;0.98;;;;;;;;;;5000924;28;20030;-61
2022/04/08 16:06:50;;;;;;;2.78;1.35;;;;;;;;;;5020920;28;20088;-72
2022/04/08 16:09:35;;;;;;;3.05;1.27;;;;;;;;;;4981413;28;20401;-62
2022/04/08 16:12:20;;;;;;;2.90;1.02;;;;;;;;;;4997494;28;20332;-63
2022/04/08 16:15:06;;;;;;;2.22;1.20;;;;;;;;;;5013018;28;20061;-65
2022/04/08 16:17:51;;;;;;;2.75;1.30;;;;;;;;;;4994417;28;20048;-62
2022/04/08 16:20:36;;;;;;;2.55;1.13;;;;;;;;;;4998282;28;20588;-64
2022/04/08 16:23:22;;;;;;;2.53;1.08;;;;;;;;;;4993739;28;20028;-65
2022/04/08 16:26:08;;;;;;;4.32;1.30;;;;;;;;;;5003510;28;20525;-73
2022/04/08 16:28:53;;;;;;;1.75;1.10;;;;;;;;;;4984901;28;20087;-65
2022/04/08 16:31:41;;;;;;;2.13;1.30;;;;;;;;;;4984650;28;20022;-65
2022/04/08 16:34:26;;;;;;;4.18;1.10;;;;;;;;;;5002394;28;20037;-65